KBNO/BNO METAR and TAF weather

Enter ICAO airport designator
Station Type Date Time Source
KBNO METAR 2020/01/22 20:53 UTC NOAA

KBNO 222053Z AUTO 09003KT 8SM -SN OVC012 02/M02 A3014 RMK AO2 SNB01 SLP232 P0000 60000 T00171017 58007


Station Type Date Time Source
KBNO Decoded METAR 2020/01/22 20:53 UTC NOAA

BURNS MUNICIPAL AIRPORT, OR, United States (KBNO) 43-36N 118-57W 1264M
Jan 22, 2020 - 03:53 PM EST / 2020.01.22 2053 UTC
Wind: from the E (090 degrees) at 3 MPH (3 KT):0
Visibility: 8 mile(s):0
Sky conditions: overcast
Weather: light snow
Precipitation last hour: A trace
Temperature: 35.1 F (1.7 C)
Dew Point: 28.9 F (-1.7 C)
Relative Humidity: 78%
Pressure (altimeter): 30.14 in. Hg (1020 hPa)
Pressure tendency: 0.02 inches (0.7 hPa) lower than three hours ago
ob: KBNO 222053Z AUTO 09003KT 8SM -SN OVC012 02/M02 A3014 RMK AO2 SNB01 SLP232 P0000 60000 T00171017 58007
cycle: 21

Station Type Date Time Source
KBNO TAF 2020/01/22 21:54 UTC NOAA

TAF
AMD KBNO 222052Z 2221/2318 VRB03KT P6SM VCSH OVC050
TEMPO 2221/2301 6SM -SN BR BKN015
FM230900 VRB04KT P6SM VCSH OVC025

Example: see airport list